Jack Frost Mountain, Pennsylvania
Current Conditions -  °F | °C
As of 9:53 AM on Friday 28 Nov 2014 (Local Time) from KMPO Reporting Station
Overcast Overcast  
Wind Chill: 11°   Ceiling: 2100
Heat Index: 24°   Visibility: 10mi
Dew Point: 16°   Wind: 15mph
Humidity: 71%   Direction: 300°WNW
Pressure: 30.12"   Gusts: 24mph
Location:  41.1°N, 75.63°W
Report Text: KMPO 281453Z AUTO 30013G21KT 10SM BKN021 BKN027 OVC045 M04/M09 A3012 RMK AO2 UPB15E32SNE15 SLP227 P0000 60000 T10441089 53011
Loading
Personal Weather Stations






























Interactive Weather Map New forecast layout! Learn more

10-Day Weather Forecast

Advertisements
Track Severe Weather on mobile